Time;durP1;ratioP1;P1;durP2;ratioP2;P2;SDS_P1;SDS_P2;PMS_P1;PMS_P2;Temp;Humidity;BMP_temperature;BMP_pressure;BME280_temperature;BME280_humidity;BME280_pressure;Samples;Min_cycle;Max_cycle;Signal;HPM_P1;HPM_P2
2022/08/18 00:02:10;;;;;;;65.70;37.20;;;;;;;18.86;100.00;101257.16;6241943;23;20000;-88
2022/08/18 00:04:37;;;;;;;63.70;37.10;;;;;;;18.89;100.00;101254.41;6215172;23;20004;-88
2022/08/18 00:07:03;;;;;;;69.03;37.60;;;;;;;18.88;100.00;101255.31;6242829;23;20010;-88
2022/08/18 00:09:29;;;;;;;60.88;35.38;;;;;;;18.89;100.00;101248.28;6242604;23;20004;-88
2022/08/18 00:11:54;;;;;;;65.45;37.33;;;;;;;18.89;100.00;101245.66;6215722;23;20092;-88
2022/08/18 00:14:20;;;;;;;61.00;35.55;;;;;;;18.87;100.00;101243.09;6241566;23;20076;-88
2022/08/18 00:16:46;;;;;;;60.90;34.63;;;;;;;18.90;100.00;101250.00;6215451;23;20008;-88
2022/08/18 00:19:12;;;;;;;66.00;36.47;;;;;;;18.88;100.00;101251.84;6242544;23;20075;-88
2022/08/18 00:21:37;;;;;;;61.03;36.67;;;;;;;18.87;100.00;101253.63;6215516;23;20000;-88
2022/08/18 00:24:03;;;;;;;57.55;33.83;;;;;;;18.86;100.00;101254.53;6214709;23;20027;-88
2022/08/18 00:26:29;;;;;;;62.35;35.22;;;;;;;18.87;100.00;101251.00;6242379;23;20322;-88
2022/08/18 00:28:54;;;;;;;59.72;35.72;;;;;;;18.88;100.00;101257.94;6215484;23;20452;-88
2022/08/18 00:31:19;;;;;;;60.60;35.83;;;;;;;18.86;100.00;101258.94;6238904;23;20004;-88
2022/08/18 00:33:44;;;;;;;61.33;36.63;;;;;;;18.86;100.00;101259.78;6242376;23;20720;-87
2022/08/18 00:36:10;;;;;;;56.30;34.30;;;;;;;18.88;100.00;101268.47;6242458;23;20237;-87
2022/08/18 00:38:37;;;;;;;60.03;35.08;;;;;;;18.88;100.00;101272.84;6242081;23;20011;-87
2022/08/18 00:41:03;;;;;;;60.90;36.17;;;;;;;18.89;100.00;101272.78;6241899;23;20000;-88
2022/08/18 00:43:38;;;;;;;64.00;36.10;;;;;;;18.90;100.00;101276.25;6241981;22;20303;-88
2022/08/18 00:46:07;;;;;;;60.40;34.83;;;;;;;18.89;100.00;101280.66;6215088;23;20000;-88
2022/08/18 00:48:33;;;;;;;61.10;35.33;;;;;;;18.88;100.00;101286.84;6242121;23;20004;-88
2022/08/18 00:51:06;;;;;;;57.65;34.28;;;;;;;18.82;100.00;101276.66;6241761;23;20010;-88
2022/08/18 00:53:40;;;;;;;59.70;34.78;;;;;;;18.86;100.00;101287.84;6215218;23;20557;-87
2022/08/18 00:56:12;;;;;;;55.17;32.72;;;;;;;18.82;100.00;101281.06;6215405;23;20075;-88
2022/08/18 00:58:45;;;;;;;54.20;31.63;;;;;;;18.83;100.00;101288.00;6242695;23;20594;-88
2022/08/18 01:01:14;;;;;;;55.05;33.47;;;;;;;18.80;100.00;101283.75;6241903;23;19996;-88
2022/08/18 01:03:42;;;;;;;55.22;32.90;;;;;;;18.80;100.00;101278.50;6215646;23;20007;-88
2022/08/18 01:06:20;;;;;;;53.47;32.53;;;;;;;18.79;100.00;101278.56;6215204;23;20011;-88
2022/08/18 01:08:46;;;;;;;54.72;32.20;;;;;;;18.77;100.00;101280.41;6214427;23;20039;-88
2022/08/18 01:11:11;;;;;;;47.97;29.65;;;;;;;18.75;100.00;101287.53;6241665;23;20007;-88
2022/08/18 01:13:39;;;;;;;48.90;31.02;;;;;;;18.72;100.00;101285.06;6242353;23;20027;-88
2022/08/18 01:21:49;;;;;;;55.05;31.45;;;;;;;18.69;100.00;101279.97;6214329;23;20031;-88
2022/08/18 01:21:51;;;;;;;;;;;;;;;18.77;100.00;101278.63;6242497;23;20014;-88
2022/08/18 01:24:19;;;;;;;50.17;30.50;;;;;;;18.72;100.00;101277.19;6209589;23;19927;-88
2022/08/18 01:26:48;;;;;;;52.58;30.35;;;;;;;18.70;100.00;101285.13;6212023;23;20365;-87
2022/08/18 01:29:16;;;;;;;52.70;31.17;;;;;;;18.66;100.00;101280.97;6212063;23;20438;-88
2022/08/18 01:31:53;;;;;;;51.55;30.85;;;;;;;18.64;100.00;101274.94;6210825;23;20004;-88
2022/08/18 01:34:21;;;;;;;52.03;31.83;;;;;;;18.62;100.00;101271.56;6211554;23;20350;-88
2022/08/18 01:36:47;;;;;;;49.75;30.20;;;;;;;18.59;100.00;101271.69;6211765;23;20007;-88
2022/08/18 01:39:12;;;;;;;48.03;29.38;;;;;;;18.53;100.00;101274.59;6208909;23;20123;-88
2022/08/18 01:41:39;;;;;;;55.75;30.52;;;;;;;18.50;100.00;101272.97;6211151;23;20579;-88
2022/08/18 01:44:05;;;;;;;51.28;30.30;;;;;;;18.47;100.00;101278.38;6210211;23;20426;-88
2022/08/18 01:46:33;;;;;;;48.67;29.73;;;;;;;18.44;100.00;101278.53;6210142;23;20459;-88
2022/08/18 01:49:00;;;;;;;49.25;29.98;;;;;;;18.43;100.00;101283.84;6209604;23;20008;-87
2022/08/18 01:51:30;;;;;;;52.42;31.48;;;;;;;18.40;100.00;101289.25;6207651;23;20016;-88
2022/08/18 01:53:55;;;;;;;49.70;29.98;;;;;;;18.38;100.00;101273.56;6211321;23;20004;-88
2022/08/18 01:56:21;;;;;;;50.92;31.23;;;;;;;18.36;100.00;101266.69;6209529;23;20032;-88
2022/08/18 01:58:47;;;;;;;52.70;31.42;;;;;;;18.34;100.00;101268.56;6210388;23;20001;-87
2022/08/18 02:01:13;;;;;;;49.28;29.17;;;;;;;18.32;100.00;101271.25;6209466;23;20009;-88
2022/08/18 02:03:43;;;;;;;48.22;29.80;;;;;;;18.29;100.00;101275.78;6211512;23;20007;-88
2022/08/18 02:06:12;;;;;;;49.05;29.95;;;;;;;18.24;100.00;101280.41;6209465;23;20004;-88
2022/08/18 02:08:38;;;;;;;52.22;30.55;;;;;;;18.20;100.00;101277.09;6210726;23;20004;-88
2022/08/18 02:11:05;;;;;;;48.10;29.83;;;;;;;18.14;100.00;101272.16;6211234;23;20004;-87
2022/08/18 02:13:31;;;;;;;53.10;31.35;;;;;;;18.11;100.00;101270.53;6211678;23;20039;-88
2022/08/18 02:15:56;;;;;;;52.35;31.20;;;;;;;18.10;100.00;101267.97;6210541;23;20004;-88
2022/08/18 02:18:26;;;;;;;53.15;32.92;;;;;;;18.07;100.00;101263.72;6209177;23;20015;-88
2022/08/18 02:20:51;;;;;;;59.38;34.72;;;;;;;18.05;100.00;101270.81;6211081;23;19997;-88
2022/08/18 02:23:17;;;;;;;54.25;32.15;;;;;;;18.03;100.00;101280.53;6226184;23;20074;-88
2022/08/18 02:25:42;;;;;;;56.83;32.57;;;;;;;18.01;100.00;101277.16;6243609;23;20007;-87
2022/08/18 02:28:07;;;;;;;57.72;34.28;;;;;;;17.95;100.00;101271.31;6216270;23;20308;-86
2022/08/18 02:30:36;;;;;;;60.72;34.25;;;;;;;17.95;100.00;101276.56;6242016;23;20089;-86
2022/08/18 02:33:03;;;;;;;58.83;34.72;;;;;;;17.89;100.00;101269.84;6242659;23;20004;-86
2022/08/18 02:35:28;;;;;;;56.47;33.30;;;;;;;17.86;100.00;101275.25;6243406;23;20038;-85
2022/08/18 02:37:53;;;;;;;59.53;35.97;;;;;;;17.84;100.00;101284.94;6242351;23;20028;-86
2022/08/18 02:40:19;;;;;;;65.90;35.77;;;;;;;17.83;100.00;101279.75;6243609;23;20230;-86
2022/08/18 02:42:45;;;;;;;62.97;36.30;;;;;;;17.80;100.00;101283.41;6243176;22;20293;-86
2022/08/18 02:45:12;;;;;;;63.17;35.42;;;;;;;17.78;100.00;101282.63;6243411;23;20008;-85
2022/08/18 02:47:38;;;;;;;60.47;34.50;;;;;;;17.77;100.00;101284.38;6216563;23;20381;-86
2022/08/18 02:50:04;;;;;;;59.53;33.85;;;;;;;17.76;100.00;101289.69;6216248;23;20047;-86
2022/08/18 02:52:32;;;;;;;58.33;34.78;;;;;;;17.72;100.00;101283.75;6215098;23;20004;-86
2022/08/18 02:55:02;;;;;;;55.58;33.55;;;;;;;17.70;100.00;101282.13;6241921;23;20004;-85
2022/08/18 02:57:28;;;;;;;61.03;33.72;;;;;;;17.69;100.00;101278.63;6243538;23;20004;-85
2022/08/18 02:59:54;;;;;;;57.30;32.95;;;;;;;17.66;100.00;101278.78;6215916;23;20027;-87
2022/08/18 03:02:19;;;;;;;57.97;34.40;;;;;;;17.61;100.00;101277.28;6243215;23;20342;-88
2022/08/18 03:04:45;;;;;;;54.83;32.47;;;;;;;17.61;100.00;101283.38;6215785;23;20038;-88
2022/08/18 03:07:10;;;;;;;60.15;34.33;;;;;;;17.56;100.00;101279.25;6242739;23;20027;-88
2022/08/18 03:09:36;;;;;;;61.85;34.28;;;;;;;17.54;100.00;101278.44;6215959;23;20011;-87
2022/08/18 03:12:02;;;;;;;56.33;32.70;;;;;;;17.50;100.00;101277.75;6243351;23;20000;-88
2022/08/18 03:14:28;;;;;;;59.70;33.83;;;;;;;17.48;100.00;101290.06;6216406;23;20018;-87
2022/08/18 03:16:54;;;;;;;58.78;33.53;;;;;;;17.46;100.00;101294.53;6243075;23;20026;-87
2022/08/18 03:19:19;;;;;;;58.90;32.60;;;;;;;17.43;100.00;101291.19;6215734;23;20004;-87
2022/08/18 03:21:46;;;;;;;58.67;33.10;;;;;;;17.41;100.00;101295.66;6243516;23;19996;-88
2022/08/18 03:24:12;;;;;;;54.17;31.85;;;;;;;17.38;100.00;101291.41;6242350;23;20349;-87
2022/08/18 03:26:43;;;;;;;58.25;32.17;;;;;;;17.34;100.00;101292.44;6242682;23;20000;-87
2022/08/18 03:29:09;;;;;;;55.72;31.85;;;;;;;17.28;100.00;101293.59;6215399;23;20007;-85
2022/08/18 03:31:36;;;;;;;58.35;33.22;;;;;;;17.27;100.00;101298.88;6242629;23;20087;-85
2022/08/18 03:34:02;;;;;;;52.03;31.85;;;;;;;17.24;100.00;101306.91;6216229;23;20007;-86
2022/08/18 03:36:31;;;;;;;56.20;31.67;;;;;;;17.19;100.00;101293.16;6242612;23;20142;-86
2022/08/18 03:38:56;;;;;;;55.00;31.05;;;;;;;17.18;100.00;101308.03;6242039;23;20015;-86
2022/08/18 03:41:24;;;;;;;54.88;32.05;;;;;;;17.14;100.00;101302.97;6215921;23;19996;-86
2022/08/18 03:43:50;;;;;;;54.30;31.17;;;;;;;17.13;100.00;101307.34;6243177;22;20449;-86
2022/08/18 03:46:17;;;;;;;55.30;31.73;;;;;;;17.07;100.00;101307.63;6242448;23;20000;-86
2022/08/18 03:48:45;;;;;;;55.55;31.63;;;;;;;17.09;100.00;101313.66;6242556;23;20019;-86
2022/08/18 03:51:17;;;;;;;49.00;30.23;;;;;;;17.09;100.00;101307.56;6242819;23;20422;-86
2022/08/18 03:53:43;;;;;;;56.80;31.92;;;;;;;17.12;100.00;101308.28;6242582;23;20341;-85
2022/08/18 03:56:14;;;;;;;56.22;32.15;;;;;;;17.12;100.00;101305.66;6242567;23;20039;-85
2022/08/18 03:58:54;;;;;;;56.08;31.75;;;;;;;17.15;100.00;101300.28;6242328;23;20011;-87
2022/08/18 04:01:23;;;;;;;56.45;32.22;;;;;;;17.20;100.00;101300.91;6243012;23;20054;-87
2022/08/18 04:03:52;;;;;;;56.13;31.25;;;;;;;17.23;100.00;101295.56;6242711;23;20076;-87
2022/08/18 04:06:21;;;;;;;53.22;30.90;;;;;;;17.27;100.00;101288.41;6242433;23;20004;-87
2022/08/18 04:08:49;;;;;;;58.78;32.55;;;;;;;17.32;100.00;101292.53;6241926;23;20000;-87
2022/08/18 04:11:14;;;;;;;57.00;32.03;;;;;;;17.35;100.00;101295.00;6242782;23;20020;-87
2022/08/18 04:13:40;;;;;;;58.10;31.88;;;;;;;17.39;100.00;101295.75;6242713;23;20004;-87
2022/08/18 04:16:06;;;;;;;56.72;32.08;;;;;;;17.44;100.00;101292.91;6215000;23;20083;-87
2022/08/18 04:18:31;;;;;;;62.72;33.90;;;;;;;17.44;100.00;101293.75;6242325;23;20004;-88
2022/08/18 04:21:02;;;;;;;63.45;34.47;;;;;;;17.51;100.00;101294.34;6241078;23;19999;-88
2022/08/18 04:23:28;;;;;;;62.50;35.33;;;;;;;17.54;100.00;101300.28;6214586;23;20047;-87
2022/08/18 04:25:58;;;;;;;67.50;35.83;;;;;;;17.56;100.00;101295.81;6242572;23;20008;-88
2022/08/18 04:28:24;;;;;;;66.25;35.85;;;;;;;17.60;100.00;101310.50;6242285;23;20000;-88
2022/08/18 04:30:49;;;;;;;65.28;35.88;;;;;;;17.59;100.00;101305.31;6240079;23;20004;-88
2022/08/18 04:33:14;;;;;;;64.28;35.20;;;;;;;17.57;100.00;101302.78;6214518;23;20361;-88
2022/08/18 04:35:40;;;;;;;64.30;35.67;;;;;;;17.63;100.00;101304.28;6242142;23;19996;-88
2022/08/18 04:38:06;;;;;;;65.57;35.57;;;;;;;17.61;100.00;101291.25;6241644;23;20239;-88
2022/08/18 04:40:33;;;;;;;67.47;35.72;;;;;;;17.64;100.00;101296.34;6215632;23;20235;-88
2022/08/18 04:43:00;;;;;;;68.07;36.78;;;;;;;17.66;100.00;101296.28;6242301;22;20008;-88
2022/08/18 04:45:25;;;;;;;65.63;36.72;;;;;;;17.67;100.00;101300.63;6241390;23;20004;-88
2022/08/18 04:47:52;;;;;;;67.77;36.40;;;;;;;17.67;100.00;101303.25;6241790;23;20003;-88
2022/08/18 04:50:17;;;;;;;63.55;34.92;;;;;;;17.66;100.00;101299.78;6241995;23;21267;-88
2022/08/18 04:55:28;;;;;;;61.08;34.58;;;;;;;17.63;100.00;101312.16;6241788;23;20337;-88
2022/08/18 04:57:53;;;;;;;66.25;36.22;;;;;;;17.62;100.00;101319.16;6242003;23;20000;-88
2022/08/18 05:00:19;;;;;;;57.97;32.20;;;;;;;17.62;100.00;101323.56;6241985;23;20050;-88
2022/08/18 05:02:44;;;;;;;62.00;33.35;;;;;;;17.61;100.00;101320.09;6242280;23;20003;-88
2022/08/18 05:05:10;;;;;;;65.73;35.70;;;;;;;17.60;100.00;101315.75;6241468;23;20000;-88
2022/08/18 05:07:35;;;;;;;68.88;36.88;;;;;;;17.59;100.00;101319.28;6214905;23;20262;-88
2022/08/18 05:10:01;;;;;;;66.50;36.42;;;;;;;17.58;100.00;101317.59;6215425;23;19994;-88
2022/08/18 05:12:27;;;;;;;65.18;35.17;;;;;;;17.61;100.00;101317.47;6242369;23;20029;-88
2022/08/18 05:14:55;;;;;;;60.22;33.75;;;;;;;17.61;100.00;101312.22;6241826;23;20076;-88
2022/08/18 05:17:20;;;;;;;60.50;33.25;;;;;;;17.60;100.00;101318.38;6240863;23;20715;-88
2022/08/18 05:19:46;;;;;;;63.90;34.67;;;;;;;17.64;100.00;101324.34;6213924;23;20028;-88
2022/08/18 05:22:18;;;;;;;66.22;35.38;;;;;;;17.63;100.00;101330.50;6215487;23;20056;-88
2022/08/18 05:24:43;;;;;;;70.68;36.75;;;;;;;17.66;100.00;101328.63;6215179;23;20483;-88
2022/08/18 05:27:08;;;;;;;67.83;35.07;;;;;;;17.69;100.00;101323.22;6242390;23;20007;-87
2022/08/18 05:29:35;;;;;;;66.65;34.88;;;;;;;17.70;100.00;101324.91;6241726;23;20235;-87
2022/08/18 05:32:03;;;;;;;63.75;34.67;;;;;;;17.71;100.00;101308.28;6240514;23;21257;-87
2022/08/18 05:34:28;;;;;;;67.13;35.42;;;;;;;17.78;100.00;101316.72;6240970;23;20000;-88
2022/08/18 05:37:10;;;;;;;62.67;34.42;;;;;;;17.78;100.00;101319.31;6214239;23;20000;-88
2022/08/18 05:39:51;;;;;;;65.30;35.25;;;;;;;17.84;100.00;101321.66;6241203;23;20075;-88
2022/08/18 05:42:19;;;;;;;63.20;34.25;;;;;;;17.83;100.00;101325.19;6214532;23;20488;-88
2022/08/18 05:44:50;;;;;;;58.53;32.78;;;;;;;17.86;100.00;101330.31;6240359;23;20015;-88
2022/08/18 05:47:29;;;;;;;67.13;35.85;;;;;;;17.87;100.00;101328.56;6240685;23;20071;-88
2022/08/18 05:50:01;;;;;;;64.25;34.00;;;;;;;17.87;100.00;101336.41;6240943;23;20437;-88
2022/08/18 05:52:35;;;;;;;60.25;33.15;;;;;;;17.86;100.00;101334.72;6215094;23;20008;-88
2022/08/18 05:58:07;;;;;;;56.55;31.00;;;;;;;17.92;100.00;101335.28;6244996;23;19961;-88
2022/08/18 06:00:34;;;;;;;61.88;32.92;;;;;;;17.92;100.00;101331.81;6245409;23;20003;-88
2022/08/18 06:03:18;;;;;;;55.25;32.40;;;;;;;17.93;100.00;101338.75;6244905;23;20496;-88
2022/08/18 06:06:00;;;;;;;55.92;31.27;;;;;;;17.95;100.00;101337.75;6244343;23;20000;-88
2022/08/18 06:08:36;;;;;;;58.83;31.80;;;;;;;17.94;100.00;101340.47;6244851;23;20007;-88
2022/08/18 06:11:02;;;;;;;56.85;31.75;;;;;;;17.96;100.00;101342.06;6245534;23;20083;-88
2022/08/18 06:13:29;;;;;;;58.78;33.65;;;;;;;17.95;100.00;101342.13;6218229;23;20015;-88
2022/08/18 06:16:18;;;;;;;58.13;32.95;;;;;;;17.98;100.00;101353.34;6244324;23;20004;-88
2022/08/18 06:19:11;;;;;;;54.88;32.05;;;;;;;18.03;100.00;101351.38;6218833;23;20054;-88
2022/08/18 06:21:58;;;;;;;53.53;30.52;;;;;;;18.07;100.00;101347.69;6245257;23;20006;-89
2022/08/18 06:24:55;;;;;;;53.30;30.52;;;;;;;18.14;100.00;101350.88;6216739;23;20051;-89
2022/08/18 06:27:30;;;;;;;51.42;28.85;;;;;;;18.16;100.00;101344.63;6215776;23;20077;-88
2022/08/18 06:30:07;;;;;;;47.55;27.23;;;;;;;18.21;100.00;101357.53;6214999;23;20081;-88
2022/08/18 06:33:04;;;;;;;47.10;27.83;;;;;;;18.26;100.00;101352.91;6215510;23;20100;-89
2022/08/18 06:35:29;;;;;;;51.63;29.23;;;;;;;18.35;100.00;101355.13;6241458;23;20004;-89
2022/08/18 06:38:38;;;;;;;55.40;30.47;;;;;;;18.37;100.00;101361.13;6214705;23;20109;-89
2022/08/18 06:41:31;;;;;;;52.42;29.10;;;;;;;18.51;100.00;101363.09;6242821;23;20235;-89
2022/08/18 06:44:06;;;;;;;53.50;28.27;;;;;;;18.56;100.00;101366.38;6241879;22;20004;-89
2022/08/18 06:46:54;;;;;;;45.40;26.95;;;;;;;18.58;100.00;101354.03;6215054;23;20069;-89
2022/08/18 06:49:57;;;;;;;49.72;28.63;;;;;;;18.65;100.00;101360.69;6243612;23;20004;-88
2022/08/18 06:52:28;;;;;;;50.53;27.63;;;;;;;18.64;100.00;101366.00;6216665;23;20004;-88
2022/08/18 06:54:56;;;;;;;47.88;28.00;;;;;;;18.65;100.00;101370.31;6244480;23;20008;-89
2022/08/18 06:57:37;;;;;;;49.88;28.02;;;;;;;18.68;100.00;101365.78;6242651;23;20341;-88
2022/08/18 07:00:24;;;;;;;47.80;28.52;;;;;;;18.74;100.00;101369.88;6244392;23;20388;-88
2022/08/18 07:02:59;;;;;;;45.75;27.98;;;;;;;18.79;100.00;101365.25;6244487;23;20004;-88
2022/08/18 07:05:31;;;;;;;47.88;27.25;;;;;;;18.92;100.00;101368.97;6217904;23;20004;-89
2022/08/18 07:08:05;;;;;;;46.03;27.30;;;;;;;19.03;100.00;101371.06;6215958;23;20004;-88
2022/08/18 07:10:39;;;;;;;40.78;26.08;;;;;;;19.10;100.00;101370.69;6242763;23;20103;-88
2022/08/18 07:13:17;;;;;;;44.97;26.35;;;;;;;19.21;100.00;101373.63;6243065;23;20004;-88
2022/08/18 07:15:44;;;;;;;37.83;24.40;;;;;;;19.28;100.00;101375.00;6243337;23;20000;-89
2022/08/18 07:18:12;;;;;;;41.28;23.98;;;;;;;19.33;100.00;101372.97;6216293;23;20389;-88
2022/08/18 07:20:47;;;;;;;37.28;23.67;;;;;;;19.36;100.00;101373.75;6242270;23;20000;-88
2022/08/18 07:23:32;;;;;;;34.45;22.58;;;;;;;19.36;100.00;101366.72;6242217;23;20050;-88
2022/08/18 07:26:14;;;;;;;34.25;22.30;;;;;;;19.35;100.00;101367.66;6216591;23;20004;-88
2022/08/18 07:28:48;;;;;;;33.97;22.38;;;;;;;19.34;100.00;101377.31;6242139;23;20023;-88
2022/08/18 07:31:30;;;;;;;35.55;22.90;;;;;;;19.38;100.00;101370.09;6242300;23;20050;-88
2022/08/18 07:34:03;;;;;;;39.47;22.88;;;;;;;19.44;100.00;101374.22;6216310;23;20000;-88
2022/08/18 07:36:34;;;;;;;41.28;24.45;;;;;;;19.52;100.00;101374.66;6243589;23;20051;-88
2022/08/18 07:39:10;;;;;;;33.70;23.70;;;;;;;19.55;100.00;101369.25;6242582;23;20007;-88
2022/08/18 07:41:51;;;;;;;35.88;22.98;;;;;;;19.57;100.00;101367.41;6239719;23;20444;-88
2022/08/18 07:44:23;;;;;;;36.20;23.33;;;;;;;19.65;100.00;101376.56;6241589;23;20004;-88
2022/08/18 07:47:00;;;;;;;35.92;23.27;;;;;;;19.73;100.00;101381.44;6242859;23;20004;-88
2022/08/18 07:49:32;;;;;;;35.55;22.67;;;;;;;19.82;100.00;101386.22;6215298;23;20058;-88
2022/08/18 07:52:10;;;;;;;32.67;21.45;;;;;;;19.96;100.00;101386.31;6215832;23;20499;-88
2022/08/18 07:54:45;;;;;;;31.48;21.58;;;;;;;20.05;100.00;101380.56;6216416;23;20001;-88
2022/08/18 07:57:26;;;;;;;35.88;22.98;;;;;;;20.09;100.00;101378.63;6243239;23;20054;-88
2022/08/18 08:00:11;;;;;;;32.00;22.33;;;;;;;20.17;99.72;101379.06;6242875;23;20464;-88
2022/08/18 08:02:57;;;;;;;29.45;21.77;;;;;;;20.21;99.16;101377.06;6242094;23;20089;-88
2022/08/18 08:05:40;;;;;;;29.17;21.35;;;;;;;20.17;100.00;101370.28;6242761;23;20035;-88
2022/08/18 08:08:27;;;;;;;32.70;22.20;;;;;;;20.19;99.50;101371.94;6215291;23;20039;-88
2022/08/18 08:11:20;;;;;;;30.48;21.75;;;;;;;20.44;98.73;101382.81;6242307;23;20054;-88
2022/08/18 08:14:10;;;;;;;28.45;20.10;;;;;;;20.83;98.85;101384.97;6241306;23;20433;-88
2022/08/18 08:16:49;;;;;;;32.40;21.00;;;;;;;21.16;96.25;101366.34;6241657;23;20004;-88
2022/08/18 08:19:45;;;;;;;26.45;19.13;;;;;;;21.43;94.58;101378.81;6215406;23;20015;-88
2022/08/18 08:22:28;;;;;;;27.95;19.15;;;;;;;21.26;94.28;101370.16;6241458;23;20403;-88
2022/08/18 08:25:24;;;;;;;29.05;19.95;;;;;;;21.12;95.35;101387.69;6242771;23;20067;-88
2022/08/18 08:28:15;;;;;;;26.25;20.05;;;;;;;20.94;95.88;101384.34;6242564;23;19996;-88
2022/08/18 08:31:07;;;;;;;27.55;20.73;;;;;;;20.81;96.20;101386.00;6214439;23;20515;-88
2022/08/18 08:34:00;;;;;;;27.55;20.83;;;;;;;20.99;96.11;101395.47;6205942;23;20441;-87
2022/08/18 08:36:37;;;;;;;29.40;20.73;;;;;;;21.31;100.00;101396.22;6242762;23;20441;-87
2022/08/18 08:39:09;;;;;;;27.60;20.30;;;;;;;21.83;94.84;101391.31;6242510;23;20429;-88
2022/08/18 08:41:40;;;;;;;24.55;18.42;;;;;;;22.35;91.24;101386.25;6241908;23;19996;-88
2022/08/18 08:44:20;;;;;;;22.52;17.48;;;;;;;22.71;90.27;101377.72;6241778;22;20004;-88
2022/08/18 08:46:57;;;;;;;23.88;18.33;;;;;;;22.69;88.63;101387.53;6241766;23;20094;-88
2022/08/18 08:49:41;;;;;;;19.92;16.83;;;;;;;22.48;86.23;101388.09;6242463;23;20004;-87
2022/08/18 08:52:27;;;;;;;21.55;16.30;;;;;;;22.32;89.69;101388.22;6215221;23;20012;-88
2022/08/18 08:54:59;;;;;;;19.45;15.48;;;;;;;22.12;87.50;101402.69;6242639;23;20004;-88
2022/08/18 08:57:37;;;;;;;19.23;15.95;;;;;;;22.09;87.91;101410.81;6214658;23;20008;-88
2022/08/18 09:00:06;;;;;;;20.58;16.55;;;;;;;22.00;88.72;101412.25;6241980;23;20050;-88
2022/08/18 09:02:42;;;;;;;22.25;17.70;;;;;;;21.99;89.72;101413.19;6241933;23;20004;-87
2022/08/18 09:05:10;;;;;;;23.40;17.52;;;;;;;22.00;87.92;101412.25;6241724;23;20601;-88
2022/08/18 09:07:47;;;;;;;23.38;16.98;;;;;;;22.02;86.93;101402.44;6242525;23;20004;-88
2022/08/18 09:10:27;;;;;;;20.80;16.33;;;;;;;21.99;89.00;101399.97;6240718;23;20062;-87
2022/08/18 09:13:30;;;;;;;22.65;16.90;;;;;;;21.97;88.71;101393.13;6241551;23;20385;-88
2022/08/18 09:16:16;;;;;;;21.45;16.45;;;;;;;21.84;89.88;101403.53;6242403;23;20004;-88
2022/08/18 09:19:14;;;;;;;25.23;16.45;;;;;;;21.74;90.51;101402.41;6242347;23;20000;-87
2022/08/18 09:21:39;;;;;;;19.85;15.95;;;;;;;21.70;89.08;101406.16;6241017;23;20493;-88
2022/08/18 09:24:18;;;;;;;21.90;15.67;;;;;;;21.78;90.05;101403.06;6214331;23;20051;-89
2022/08/18 09:26:51;;;;;;;20.05;14.50;;;;;;;21.87;91.05;101406.00;6242265;23;20004;-88
2022/08/18 09:29:23;;;;;;;17.08;12.95;;;;;;;21.83;88.09;101408.94;6242005;23;20008;-88
2022/08/18 09:32:17;;;;;;;17.98;13.63;;;;;;;21.79;88.11;101405.59;6241915;23;20000;-88
2022/08/18 09:35:07;;;;;;;19.05;14.18;;;;;;;21.67;87.99;101411.66;6241391;23;20003;-88
2022/08/18 09:43:38;;;;;;;18.20;13.45;;;;;;;21.52;87.65;101392.31;6241793;22;20119;-87
2022/08/18 09:46:06;;;;;;;18.52;13.88;;;;;;;21.53;85.42;101395.81;6242154;23;20629;-87
2022/08/18 09:48:34;;;;;;;17.55;13.60;;;;;;;21.61;86.76;101397.03;6239387;23;20008;-88
2022/08/18 09:51:14;;;;;;;18.00;12.95;;;;;;;21.79;87.16;101397.69;6239341;23;20005;-88
2022/08/18 09:53:45;;;;;;;15.68;12.55;;;;;;;22.00;86.69;101399.03;6211470;23;20073;-88
2022/08/18 09:56:13;;;;;;;16.80;12.75;;;;;;;22.13;83.13;101407.03;6241866;23;20004;-88
2022/08/18 09:58:50;;;;;;;17.63;13.32;;;;;;;22.16;82.86;101404.22;6240934;23;20011;-88
2022/08/18 10:01:20;;;;;;;16.05;12.77;;;;;;;22.22;85.56;101400.34;6214788;23;20019;-88
2022/08/18 10:04:13;;;;;;;17.83;12.77;;;;;;;22.22;85.06;101402.97;6241537;23;20456;-88
2022/08/18 10:06:46;;;;;;;16.98;13.55;;;;;;;22.22;82.39;101400.34;6239781;23;20067;-88
2022/08/18 10:09:34;;;;;;;17.80;13.50;;;;;;;22.38;84.88;101401.88;6214210;23;20004;-88
2022/08/18 10:12:09;;;;;;;16.00;13.10;;;;;;;22.50;82.60;101389.69;6241411;23;20011;-88
2022/08/18 10:15:05;;;;;;;16.85;12.70;;;;;;;22.79;85.40;101393.13;6214542;23;20034;-88
2022/08/18 10:17:48;;;;;;;16.35;13.10;;;;;;;22.81;80.76;101396.50;6240816;23;20080;-88
2022/08/18 10:20:29;;;;;;;16.73;13.32;;;;;;;22.80;78.05;101390.34;6240206;23;20341;-88
2022/08/18 10:22:55;;;;;;;16.08;12.70;;;;;;;22.76;77.92;101386.22;6240582;23;20016;-87
2022/08/18 10:25:46;;;;;;;14.23;11.82;;;;;;;22.84;80.99;101385.72;6241461;23;20027;-88
2022/08/18 10:28:51;;;;;;;17.55;14.00;;;;;;;22.83;80.06;101387.53;6230547;23;20015;-88
2022/08/18 10:31:16;;;;;;;17.27;14.10;;;;;;;22.75;77.50;101383.69;6241231;23;20058;-87
2022/08/18 10:34:04;;;;;;;16.27;14.13;;;;;;;22.86;80.28;101378.50;6240585;23;20004;-87
2022/08/18 10:37:00;;;;;;;18.00;15.25;;;;;;;22.96;79.23;101386.69;6240744;23;20680;-88
2022/08/18 10:39:38;;;;;;;17.27;15.32;;;;;;;23.01;76.90;101381.94;6241436;23;20071;-88
2022/08/18 10:42:13;;;;;;;18.80;16.02;;;;;;;23.09;76.40;101379.63;6241787;22;20414;-88
2022/08/18 10:44:46;;;;;;;18.15;15.32;;;;;;;23.29;78.08;101376.47;6216805;23;20014;-88
2022/08/18 10:47:23;;;;;;;17.80;15.18;;;;;;;23.57;77.49;101375.47;6239401;23;20008;-88
2022/08/18 10:49:49;;;;;;;18.08;15.10;;;;;;;23.80;74.93;101387.09;6241470;23;20038;-88
2022/08/18 10:52:17;;;;;;;20.30;16.88;;;;;;;23.93;70.75;101385.28;6241929;23;20438;-88
2022/08/18 10:55:12;;;;;;;17.92;15.77;;;;;;;24.04;76.69;101388.00;6243386;23;20439;-88
2022/08/18 10:57:59;;;;;;;17.90;15.63;;;;;;;24.29;76.01;101385.31;6242574;23;20035;-89
2022/08/18 11:00:37;;;;;;;19.35;17.02;;;;;;;24.40;69.05;101374.78;6242855;23;20000;-89
2022/08/18 11:03:30;;;;;;;18.52;16.20;;;;;;;24.67;74.55;101379.00;6215275;23;20008;-88
2022/08/18 11:06:05;;;;;;;18.42;16.30;;;;;;;24.52;69.75;101382.78;6242776;23;20341;-89
2022/08/18 11:08:36;;;;;;;18.08;16.05;;;;;;;24.20;69.65;101385.16;6240880;23;20338;-88
2022/08/18 11:11:11;;;;;;;19.38;16.67;;;;;;;23.92;70.75;101375.63;6213855;23;20035;-88
2022/08/18 11:14:00;;;;;;;17.63;15.75;;;;;;;23.78;72.47;101371.31;6240804;23;20030;-88
2022/08/18 11:16:43;;;;;;;16.48;14.68;;;;;;;23.72;71.49;101384.16;6213459;23;20019;-88
2022/08/18 11:19:12;;;;;;;16.95;12.70;;;;;;;23.69;72.40;101365.81;6240645;23;20421;-89
2022/08/18 11:21:40;;;;;;;15.80;13.43;;;;;;;23.70;73.78;101362.22;6240901;23;20003;-88
2022/08/18 11:24:10;;;;;;;15.32;13.13;;;;;;;23.68;71.67;101358.84;6213779;23;20077;-89
2022/08/18 11:26:46;;;;;;;14.80;13.18;;;;;;;23.70;70.45;101355.13;6241572;23;20311;-88
2022/08/18 11:29:33;;;;;;;17.45;14.48;;;;;;;23.96;71.10;101353.28;6213154;23;20164;-88
2022/08/18 11:32:22;;;;;;;14.88;13.23;;;;;;;24.27;72.45;101342.19;6213316;23;20022;-88
2022/08/18 11:35:00;;;;;;;16.70;13.98;;;;;;;24.35;69.04;101349.59;6213854;23;20004;-89
2022/08/18 11:37:33;;;;;;;15.68;14.07;;;;;;;24.25;69.71;101337.97;6214465;23;20015;-89
2022/08/18 11:40:02;;;;;;;15.48;13.77;;;;;;;24.18;69.85;101341.97;6242548;23;20054;-89
2022/08/18 11:42:32;;;;;;;14.15;12.20;;;;;;;24.18;68.38;101342.81;6243334;22;20020;-89
2022/08/18 11:45:09;;;;;;;15.77;14.05;;;;;;;24.21;70.18;101334.69;6243942;23;20007;-89
2022/08/18 11:47:37;;;;;;;15.57;13.90;;;;;;;24.28;65.27;101328.00;6216049;23;20000;-89